sensor_id;sensor_type;location;lat;lon;timestamp;P1;durP1;ratioP1;P2;durP2;ratioP2
76103;SDS011;64831;44.870;37.336;2022-12-29T00:02:21;11.10;;;4.38;;
76103;SDS011;64831;44.870;37.336;2022-12-29T00:04:47;14.18;;;4.28;;
76103;SDS011;64831;44.870;37.336;2022-12-29T00:07:15;14.05;;;5.22;;
76103;SDS011;64831;44.870;37.336;2022-12-29T00:09:42;11.77;;;4.13;;
76103;SDS011;64831;44.870;37.336;2022-12-29T00:12:08;8.45;;;3.50;;
76103;SDS011;64831;44.870;37.336;2022-12-29T00:14:34;10.77;;;3.60;;
76103;SDS011;64831;44.870;37.336;2022-12-29T00:17:18;8.52;;;3.58;;
76103;SDS011;64831;44.870;37.336;2022-12-29T00:19:44;17.75;;;3.95;;
76103;SDS011;64831;44.870;37.336;2022-12-29T00:22:28;7.40;;;3.70;;
76103;SDS011;64831;44.870;37.336;2022-12-29T00:25:13;8.70;;;4.00;;
76103;SDS011;64831;44.870;37.336;2022-12-29T00:27:58;8.93;;;3.53;;
76103;SDS011;64831;44.870;37.336;2022-12-29T00:30:42;9.30;;;3.80;;
76103;SDS011;64831;44.870;37.336;2022-12-29T00:33:31;9.27;;;3.78;;
76103;SDS011;64831;44.870;37.336;2022-12-29T00:36:18;15.65;;;3.85;;
76103;SDS011;64831;44.870;37.336;2022-12-29T00:38:59;16.60;;;4.45;;
76103;SDS011;64831;44.870;37.336;2022-12-29T00:41:48;9.10;;;3.85;;
76103;SDS011;64831;44.870;37.336;2022-12-29T00:44:32;14.35;;;3.90;;
76103;SDS011;64831;44.870;37.336;2022-12-29T00:46:58;7.95;;;4.05;;
76103;SDS011;64831;44.870;37.336;2022-12-29T00:49:28;15.38;;;4.10;;
76103;SDS011;64831;44.870;37.336;2022-12-29T00:54:32;14.80;;;3.75;;
76103;SDS011;64831;44.870;37.336;2022-12-29T00:56:59;9.73;;;3.70;;
76103;SDS011;64831;44.870;37.336;2022-12-29T00:59:26;12.90;;;4.03;;
76103;SDS011;64831;44.870;37.336;2022-12-29T01:01:52;12.75;;;4.35;;
76103;SDS011;64831;44.870;37.336;2022-12-29T01:04:20;7.07;;;3.35;;
76103;SDS011;64831;44.870;37.336;2022-12-29T01:06:47;10.05;;;4.32;;
76103;SDS011;64831;44.870;37.336;2022-12-29T01:09:14;15.52;;;4.47;;
76103;SDS011;64831;44.870;37.336;2022-12-29T01:11:59;9.35;;;3.67;;
76103;SDS011;64831;44.870;37.336;2022-12-29T01:14:25;12.63;;;4.00;;
76103;SDS011;64831;44.870;37.336;2022-12-29T01:16:51;14.68;;;3.90;;
76103;SDS011;64831;44.870;37.336;2022-12-29T01:19:18;9.60;;;3.55;;
76103;SDS011;64831;44.870;37.336;2022-12-29T01:21:45;10.20;;;3.95;;
76103;SDS011;64831;44.870;37.336;2022-12-29T01:24:12;12.90;;;4.13;;
76103;SDS011;64831;44.870;37.336;2022-12-29T01:26:38;9.82;;;3.67;;
76103;SDS011;64831;44.870;37.336;2022-12-29T01:29:04;10.13;;;3.88;;
76103;SDS011;64831;44.870;37.336;2022-12-29T01:31:30;11.75;;;4.05;;
76103;SDS011;64831;44.870;37.336;2022-12-29T01:33:56;15.15;;;4.50;;
76103;SDS011;64831;44.870;37.336;2022-12-29T01:36:23;11.80;;;4.00;;
76103;SDS011;64831;44.870;37.336;2022-12-29T01:38:50;11.05;;;4.40;;
76103;SDS011;64831;44.870;37.336;2022-12-29T01:41:16;8.20;;;3.63;;
76103;SDS011;64831;44.870;37.336;2022-12-29T01:51:42;10.65;;;4.50;;
76103;SDS011;64831;44.870;37.336;2022-12-29T01:54:14;13.35;;;4.07;;
76103;SDS011;64831;44.870;37.336;2022-12-29T01:56:53;16.70;;;4.40;;
76103;SDS011;64831;44.870;37.336;2022-12-29T01:59:24;12.73;;;3.97;;
76103;SDS011;64831;44.870;37.336;2022-12-29T02:01:55;11.48;;;4.05;;
76103;SDS011;64831;44.870;37.336;2022-12-29T02:04:21;7.97;;;4.20;;
76103;SDS011;64831;44.870;37.336;2022-12-29T02:09:29;10.02;;;3.60;;
76103;SDS011;64831;44.870;37.336;2022-12-29T02:11:56;6.90;;;3.28;;
76103;SDS011;64831;44.870;37.336;2022-12-29T02:14:23;9.60;;;3.88;;
76103;SDS011;64831;44.870;37.336;2022-12-29T02:22:32;10.50;;;4.22;;
76103;SDS011;64831;44.870;37.336;2022-12-29T02:25:05;11.05;;;3.42;;
76103;SDS011;64831;44.870;37.336;2022-12-29T02:28:17;8.15;;;4.00;;
76103;SDS011;64831;44.870;37.336;2022-12-29T02:33:50;10.80;;;3.80;;
76103;SDS011;64831;44.870;37.336;2022-12-29T02:39:29;11.27;;;3.95;;
76103;SDS011;64831;44.870;37.336;2022-12-29T02:53:00;10.40;;;4.13;;
76103;SDS011;64831;44.870;37.336;2022-12-29T02:55:29;10.82;;;3.67;;
76103;SDS011;64831;44.870;37.336;2022-12-29T02:58:13;9.30;;;4.10;;
76103;SDS011;64831;44.870;37.336;2022-12-29T03:00:47;14.88;;;4.47;;
76103;SDS011;64831;44.870;37.336;2022-12-29T03:04:21;7.15;;;3.60;;
76103;SDS011;64831;44.870;37.336;2022-12-29T03:16:01;8.95;;;3.88;;
76103;SDS011;64831;44.870;37.336;2022-12-29T03:24:35;7.28;;;3.35;;
76103;SDS011;64831;44.870;37.336;2022-12-29T03:27:04;10.60;;;3.22;;
76103;SDS011;64831;44.870;37.336;2022-12-29T03:29:42;16.17;;;4.10;;
76103;SDS011;64831;44.870;37.336;2022-12-29T03:32:13;9.82;;;3.95;;
76103;SDS011;64831;44.870;37.336;2022-12-29T03:34:40;10.00;;;3.58;;
76103;SDS011;64831;44.870;37.336;2022-12-29T03:37:15;9.40;;;3.22;;
76103;SDS011;64831;44.870;37.336;2022-12-29T03:39:44;10.43;;;3.65;;
76103;SDS011;64831;44.870;37.336;2022-12-29T03:42:14;8.23;;;3.53;;
76103;SDS011;64831;44.870;37.336;2022-12-29T03:44:43;10.40;;;3.60;;
76103;SDS011;64831;44.870;37.336;2022-12-29T03:47:13;7.70;;;3.45;;
76103;SDS011;64831;44.870;37.336;2022-12-29T03:49:43;10.27;;;3.38;;
76103;SDS011;64831;44.870;37.336;2022-12-29T03:52:08;8.15;;;3.17;;
76103;SDS011;64831;44.870;37.336;2022-12-29T03:54:40;6.07;;;3.15;;
76103;SDS011;64831;44.870;37.336;2022-12-29T03:57:07;11.68;;;3.95;;
76103;SDS011;64831;44.870;37.336;2022-12-29T03:59:54;9.50;;;2.92;;
76103;SDS011;64831;44.870;37.336;2022-12-29T04:02:20;8.07;;;3.13;;
76103;SDS011;64831;44.870;37.336;2022-12-29T04:04:46;8.00;;;3.13;;
76103;SDS011;64831;44.870;37.336;2022-12-29T04:07:12;8.73;;;3.35;;
76103;SDS011;64831;44.870;37.336;2022-12-29T04:09:40;7.43;;;3.63;;
76103;SDS011;64831;44.870;37.336;2022-12-29T04:12:08;7.45;;;3.35;;
76103;SDS011;64831;44.870;37.336;2022-12-29T04:14:34;8.27;;;3.05;;
76103;SDS011;64831;44.870;37.336;2022-12-29T04:17:00;9.13;;;3.38;;
76103;SDS011;64831;44.870;37.336;2022-12-29T04:19:28;9.75;;;3.42;;
76103;SDS011;64831;44.870;37.336;2022-12-29T04:21:54;8.20;;;3.72;;
76103;SDS011;64831;44.870;37.336;2022-12-29T04:24:20;8.30;;;3.63;;
76103;SDS011;64831;44.870;37.336;2022-12-29T04:26:48;8.43;;;3.47;;
76103;SDS011;64831;44.870;37.336;2022-12-29T04:29:29;9.65;;;3.55;;
76103;SDS011;64831;44.870;37.336;2022-12-29T04:32:13;7.22;;;3.75;;
76103;SDS011;64831;44.870;37.336;2022-12-29T04:34:45;9.93;;;3.33;;
76103;SDS011;64831;44.870;37.336;2022-12-29T04:37:11;10.75;;;3.70;;
76103;SDS011;64831;44.870;37.336;2022-12-29T04:39:37;22.65;;;4.60;;
76103;SDS011;64831;44.870;37.336;2022-12-29T04:42:05;13.90;;;4.43;;
76103;SDS011;64831;44.870;37.336;2022-12-29T04:44:31;16.80;;;4.60;;
76103;SDS011;64831;44.870;37.336;2022-12-29T04:47:10;17.85;;;5.05;;
76103;SDS011;64831;44.870;37.336;2022-12-29T04:50:05;12.55;;;4.20;;
76103;SDS011;64831;44.870;37.336;2022-12-29T04:52:41;19.73;;;4.53;;
76103;SDS011;64831;44.870;37.336;2022-12-29T04:55:09;22.23;;;4.78;;
76103;SDS011;64831;44.870;37.336;2022-12-29T04:57:35;13.20;;;2.67;;
76103;SDS011;64831;44.870;37.336;2022-12-29T05:00:02;16.95;;;5.75;;
76103;SDS011;64831;44.870;37.336;2022-12-29T05:02:29;18.25;;;6.80;;
76103;SDS011;64831;44.870;37.336;2022-12-29T05:04:56;32.30;;;6.47;;
76103;SDS011;64831;44.870;37.336;2022-12-29T05:07:22;26.33;;;7.68;;
76103;SDS011;64831;44.870;37.336;2022-12-29T05:09:48;27.80;;;7.95;;
76103;SDS011;64831;44.870;37.336;2022-12-29T05:12:14;10.77;;;4.50;;
76103;SDS011;64831;44.870;37.336;2022-12-29T05:14:51;14.15;;;4.95;;
76103;SDS011;64831;44.870;37.336;2022-12-29T05:17:18;24.48;;;5.55;;
76103;SDS011;64831;44.870;37.336;2022-12-29T05:19:44;8.32;;;4.28;;
76103;SDS011;64831;44.870;37.336;2022-12-29T05:22:11;14.60;;;4.53;;
76103;SDS011;64831;44.870;37.336;2022-12-29T05:24:37;15.02;;;4.85;;
76103;SDS011;64831;44.870;37.336;2022-12-29T05:27:04;11.55;;;4.90;;
76103;SDS011;64831;44.870;37.336;2022-12-29T05:29:43;26.10;;;6.13;;
76103;SDS011;64831;44.870;37.336;2022-12-29T05:32:09;15.05;;;5.85;;
76103;SDS011;64831;44.870;37.336;2022-12-29T05:34:35;11.90;;;5.40;;
76103;SDS011;64831;44.870;37.336;2022-12-29T05:37:01;18.40;;;4.32;;
76103;SDS011;64831;44.870;37.336;2022-12-29T05:39:28;16.33;;;4.40;;
76103;SDS011;64831;44.870;37.336;2022-12-29T05:41:58;11.95;;;4.60;;
76103;SDS011;64831;44.870;37.336;2022-12-29T05:44:44;13.38;;;5.28;;
76103;SDS011;64831;44.870;37.336;2022-12-29T05:47:33;11.13;;;4.43;;
76103;SDS011;64831;44.870;37.336;2022-12-29T05:50:18;20.17;;;6.63;;
76103;SDS011;64831;44.870;37.336;2022-12-29T05:53:03;20.88;;;7.38;;
76103;SDS011;64831;44.870;37.336;2022-12-29T05:55:29;21.42;;;7.15;;
76103;SDS011;64831;44.870;37.336;2022-12-29T05:57:55;16.85;;;7.05;;
76103;SDS011;64831;44.870;37.336;2022-12-29T06:00:21;21.42;;;7.78;;
76103;SDS011;64831;44.870;37.336;2022-12-29T06:02:47;14.93;;;6.70;;
76103;SDS011;64831;44.870;37.336;2022-12-29T06:05:15;22.00;;;6.60;;
76103;SDS011;64831;44.870;37.336;2022-12-29T06:07:42;16.90;;;6.10;;
76103;SDS011;64831;44.870;37.336;2022-12-29T06:10:08;17.60;;;5.53;;
76103;SDS011;64831;44.870;37.336;2022-12-29T06:12:44;10.50;;;4.90;;
76103;SDS011;64831;44.870;37.336;2022-12-29T06:15:10;21.27;;;6.60;;
76103;SDS011;64831;44.870;37.336;2022-12-29T06:17:38;16.75;;;7.07;;
76103;SDS011;64831;44.870;37.336;2022-12-29T06:20:05;14.32;;;5.32;;
76103;SDS011;64831;44.870;37.336;2022-12-29T06:22:32;11.20;;;4.72;;
76103;SDS011;64831;44.870;37.336;2022-12-29T06:24:58;11.90;;;6.15;;
76103;SDS011;64831;44.870;37.336;2022-12-29T06:27:24;14.02;;;6.93;;
76103;SDS011;64831;44.870;37.336;2022-12-29T06:29:52;15.02;;;6.15;;
76103;SDS011;64831;44.870;37.336;2022-12-29T06:32:17;8.27;;;4.15;;
76103;SDS011;64831;44.870;37.336;2022-12-29T06:37:13;8.98;;;3.17;;
76103;SDS011;64831;44.870;37.336;2022-12-29T06:39:40;8.25;;;3.15;;
76103;SDS011;64831;44.870;37.336;2022-12-29T06:42:09;4.90;;;2.60;;
76103;SDS011;64831;44.870;37.336;2022-12-29T06:44:44;3.40;;;2.28;;
76103;SDS011;64831;44.870;37.336;2022-12-29T06:47:10;4.88;;;2.67;;
76103;SDS011;64831;44.870;37.336;2022-12-29T06:49:36;9.35;;;3.42;;
76103;SDS011;64831;44.870;37.336;2022-12-29T06:52:02;13.50;;;3.95;;
76103;SDS011;64831;44.870;37.336;2022-12-29T06:54:30;8.45;;;4.43;;
76103;SDS011;64831;44.870;37.336;2022-12-29T06:56:56;15.02;;;6.28;;
76103;SDS011;64831;44.870;37.336;2022-12-29T06:59:23;7.93;;;3.70;;
76103;SDS011;64831;44.870;37.336;2022-12-29T07:01:50;17.58;;;7.25;;
76103;SDS011;64831;44.870;37.336;2022-12-29T07:04:16;20.50;;;7.85;;
76103;SDS011;64831;44.870;37.336;2022-12-29T07:06:41;19.40;;;6.60;;
76103;SDS011;64831;44.870;37.336;2022-12-29T07:09:08;18.25;;;5.90;;
76103;SDS011;64831;44.870;37.336;2022-12-29T07:11:34;13.00;;;4.93;;
76103;SDS011;64831;44.870;37.336;2022-12-29T07:14:01;9.68;;;4.25;;
76103;SDS011;64831;44.870;37.336;2022-12-29T07:16:28;16.73;;;5.95;;
76103;SDS011;64831;44.870;37.336;2022-12-29T07:18:55;22.25;;;8.23;;
76103;SDS011;64831;44.870;37.336;2022-12-29T07:21:22;19.50;;;7.50;;
76103;SDS011;64831;44.870;37.336;2022-12-29T07:23:48;16.88;;;6.03;;
76103;SDS011;64831;44.870;37.336;2022-12-29T07:26:14;17.45;;;8.15;;
76103;SDS011;64831;44.870;37.336;2022-12-29T07:28:43;21.30;;;7.60;;
76103;SDS011;64831;44.870;37.336;2022-12-29T07:31:12;17.00;;;6.18;;
76103;SDS011;64831;44.870;37.336;2022-12-29T07:33:41;11.25;;;5.70;;
76103;SDS011;64831;44.870;37.336;2022-12-29T07:36:07;17.10;;;7.57;;
76103;SDS011;64831;44.870;37.336;2022-12-29T07:38:33;14.35;;;5.60;;
76103;SDS011;64831;44.870;37.336;2022-12-29T07:40:59;11.13;;;4.72;;
76103;SDS011;64831;44.870;37.336;2022-12-29T07:43:25;12.13;;;5.65;;
76103;SDS011;64831;44.870;37.336;2022-12-29T07:46:11;13.20;;;6.82;;
76103;SDS011;64831;44.870;37.336;2022-12-29T07:48:36;13.23;;;5.30;;
76103;SDS011;64831;44.870;37.336;2022-12-29T07:51:02;16.17;;;7.10;;
76103;SDS011;64831;44.870;37.336;2022-12-29T07:53:28;13.65;;;6.55;;
76103;SDS011;64831;44.870;37.336;2022-12-29T07:55:54;16.23;;;7.43;;
76103;SDS011;64831;44.870;37.336;2022-12-29T07:58:21;16.67;;;7.55;;
76103;SDS011;64831;44.870;37.336;2022-12-29T08:00:47;17.15;;;7.95;;
76103;SDS011;64831;44.870;37.336;2022-12-29T08:03:13;18.23;;;7.82;;
76103;SDS011;64831;44.870;37.336;2022-12-29T08:05:39;22.90;;;8.13;;
76103;SDS011;64831;44.870;37.336;2022-12-29T08:08:05;8.40;;;4.00;;
76103;SDS011;64831;44.870;37.336;2022-12-29T08:10:30;6.03;;;3.00;;
76103;SDS011;64831;44.870;37.336;2022-12-29T08:12:57;3.65;;;1.90;;
76103;SDS011;64831;44.870;37.336;2022-12-29T08:15:23;6.85;;;1.80;;
76103;SDS011;64831;44.870;37.336;2022-12-29T08:17:48;4.28;;;2.30;;
76103;SDS011;64831;44.870;37.336;2022-12-29T08:20:15;9.48;;;2.40;;
76103;SDS011;64831;44.870;37.336;2022-12-29T08:22:41;5.88;;;2.95;;
76103;SDS011;64831;44.870;37.336;2022-12-29T08:25:06;7.95;;;2.42;;
76103;SDS011;64831;44.870;37.336;2022-12-29T08:27:33;6.30;;;2.72;;
76103;SDS011;64831;44.870;37.336;2022-12-29T08:29:59;6.18;;;2.38;;
76103;SDS011;64831;44.870;37.336;2022-12-29T08:32:26;4.55;;;2.22;;
76103;SDS011;64831;44.870;37.336;2022-12-29T08:34:53;5.03;;;2.03;;
76103;SDS011;64831;44.870;37.336;2022-12-29T08:37:19;4.00;;;2.00;;
76103;SDS011;64831;44.870;37.336;2022-12-29T08:39:45;13.27;;;6.05;;
76103;SDS011;64831;44.870;37.336;2022-12-29T08:42:11;4.38;;;1.92;;
76103;SDS011;64831;44.870;37.336;2022-12-29T08:44:37;4.07;;;2.20;;
76103;SDS011;64831;44.870;37.336;2022-12-29T08:47:03;3.03;;;1.67;;
76103;SDS011;64831;44.870;37.336;2022-12-29T08:49:29;5.10;;;1.50;;
76103;SDS011;64831;44.870;37.336;2022-12-29T08:51:55;3.58;;;1.60;;
76103;SDS011;64831;44.870;37.336;2022-12-29T08:54:21;3.55;;;1.85;;
76103;SDS011;64831;44.870;37.336;2022-12-29T08:56:46;3.35;;;1.90;;
76103;SDS011;64831;44.870;37.336;2022-12-29T08:59:14;3.38;;;1.20;;
76103;SDS011;64831;44.870;37.336;2022-12-29T09:01:41;5.10;;;2.10;;
76103;SDS011;64831;44.870;37.336;2022-12-29T09:04:07;5.03;;;2.40;;
76103;SDS011;64831;44.870;37.336;2022-12-29T09:06:34;6.07;;;2.08;;
76103;SDS011;64831;44.870;37.336;2022-12-29T09:09:00;4.25;;;1.90;;
76103;SDS011;64831;44.870;37.336;2022-12-29T09:11:26;5.20;;;1.45;;
76103;SDS011;64831;44.870;37.336;2022-12-29T09:13:52;3.08;;;1.70;;
76103;SDS011;64831;44.870;37.336;2022-12-29T09:16:19;9.60;;;2.38;;
76103;SDS011;64831;44.870;37.336;2022-12-29T09:18:47;4.22;;;1.88;;
76103;SDS011;64831;44.870;37.336;2022-12-29T09:21:12;1.30;;;0.70;;
76103;SDS011;64831;44.870;37.336;2022-12-29T09:23:39;4.35;;;1.40;;
76103;SDS011;64831;44.870;37.336;2022-12-29T09:26:06;2.85;;;1.58;;
76103;SDS011;64831;44.870;37.336;2022-12-29T09:28:32;1.80;;;1.25;;
76103;SDS011;64831;44.870;37.336;2022-12-29T09:30:59;2.63;;;1.27;;
76103;SDS011;64831;44.870;37.336;2022-12-29T09:33:26;2.78;;;1.50;;
76103;SDS011;64831;44.870;37.336;2022-12-29T09:35:56;3.60;;;1.40;;
76103;SDS011;64831;44.870;37.336;2022-12-29T09:38:23;3.53;;;1.50;;
76103;SDS011;64831;44.870;37.336;2022-12-29T09:40:51;1.80;;;1.23;;
76103;SDS011;64831;44.870;37.336;2022-12-29T09:43:25;0.90;;;0.80;;
76103;SDS011;64831;44.870;37.336;2022-12-29T09:46:05;2.35;;;1.42;;
76103;SDS011;64831;44.870;37.336;2022-12-29T09:51:41;3.10;;;1.45;;
76103;SDS011;64831;44.870;37.336;2022-12-29T09:54:56;1.98;;;1.27;;
76103;SDS011;64831;44.870;37.336;2022-12-29T09:56:56;0.70;;;0.70;;
76103;SDS011;64831;44.870;37.336;2022-12-29T09:59:41;3.03;;;1.13;;
76103;SDS011;64831;44.870;37.336;2022-12-29T10:04:46;1.25;;;1.10;;
76103;SDS011;64831;44.870;37.336;2022-12-29T10:10:10;2.10;;;1.08;;
76103;SDS011;64831;44.870;37.336;2022-12-29T10:15:33;3.33;;;1.10;;
76103;SDS011;64831;44.870;37.336;2022-12-29T10:24:06;2.42;;;0.90;;
76103;SDS011;64831;44.870;37.336;2022-12-29T10:26:40;1.40;;;0.98;;
76103;SDS011;64831;44.870;37.336;2022-12-29T10:29:15;1.40;;;1.13;;
76103;SDS011;64831;44.870;37.336;2022-12-29T10:31:48;3.13;;;1.80;;
76103;SDS011;64831;44.870;37.336;2022-12-29T10:34:44;1.05;;;0.68;;
76103;SDS011;64831;44.870;37.336;2022-12-29T10:39:48;2.40;;;1.30;;
76103;SDS011;64831;44.870;37.336;2022-12-29T10:44:53;5.50;;;1.80;;
76103;SDS011;64831;44.870;37.336;2022-12-29T10:47:25;4.68;;;1.40;;
76103;SDS011;64831;44.870;37.336;2022-12-29T15:39:17;0.98;;;0.80;;
76103;SDS011;64831;44.870;37.336;2022-12-29T15:42:18;3.80;;;1.20;;
76103;SDS011;64831;44.870;37.336;2022-12-29T15:44:52;1.88;;;1.10;;
76103;SDS011;64831;44.870;37.336;2022-12-29T15:47:19;1.20;;;0.82;;
76103;SDS011;64831;44.870;37.336;2022-12-29T15:49:52;0.55;;;0.50;;
76103;SDS011;64831;44.870;37.336;2022-12-29T15:52:21;2.25;;;0.70;;
76103;SDS011;64831;44.870;37.336;2022-12-29T15:54:49;2.13;;;0.57;;
76103;SDS011;64831;44.870;37.336;2022-12-29T15:57:25;4.55;;;0.90;;
76103;SDS011;64831;44.870;37.336;2022-12-29T15:59:55;3.88;;;0.85;;
76103;SDS011;64831;44.870;37.336;2022-12-29T16:02:21;3.47;;;1.00;;
76103;SDS011;64831;44.870;37.336;2022-12-29T16:04:48;0.70;;;0.70;;
76103;SDS011;64831;44.870;37.336;2022-12-29T16:07:26;0.40;;;0.40;;
76103;SDS011;64831;44.870;37.336;2022-12-29T16:09:57;1.65;;;0.88;;
76103;SDS011;64831;44.870;37.336;2022-12-29T16:12:26;1.50;;;0.65;;
76103;SDS011;64831;44.870;37.336;2022-12-29T16:14:58;1.80;;;0.80;;
76103;SDS011;64831;44.870;37.336;2022-12-29T16:17:30;0.80;;;0.80;;
76103;SDS011;64831;44.870;37.336;2022-12-29T16:20:02;0.75;;;0.63;;
76103;SDS011;64831;44.870;37.336;2022-12-29T16:22:42;5.43;;;0.80;;
76103;SDS011;64831;44.870;37.336;2022-12-29T16:28:18;1.80;;;0.68;;
76103;SDS011;64831;44.870;37.336;2022-12-29T16:31:05;3.85;;;0.80;;
76103;SDS011;64831;44.870;37.336;2022-12-29T16:36:20;2.45;;;0.95;;
76103;SDS011;64831;44.870;37.336;2022-12-29T16:38:46;1.88;;;0.90;;
76103;SDS011;64831;44.870;37.336;2022-12-29T16:41:12;0.68;;;0.68;;
76103;SDS011;64831;44.870;37.336;2022-12-29T16:49:47;0.90;;;0.80;;
76103;SDS011;64831;44.870;37.336;2022-12-29T16:52:21;1.15;;;0.70;;
76103;SDS011;64831;44.870;37.336;2022-12-29T16:55:00;2.45;;;1.08;;
76103;SDS011;64831;44.870;37.336;2022-12-29T16:57:33;1.70;;;1.08;;
76103;SDS011;64831;44.870;37.336;2022-12-29T17:00:05;2.15;;;1.27;;
76103;SDS011;64831;44.870;37.336;2022-12-29T17:02:32;1.80;;;0.90;;
76103;SDS011;64831;44.870;37.336;2022-12-29T17:05:00;2.47;;;0.77;;
76103;SDS011;64831;44.870;37.336;2022-12-29T17:07:27;2.20;;;0.65;;
76103;SDS011;64831;44.870;37.336;2022-12-29T17:09:53;0.80;;;0.65;;
76103;SDS011;64831;44.870;37.336;2022-12-29T17:12:24;1.25;;;0.80;;
76103;SDS011;64831;44.870;37.336;2022-12-29T17:14:59;1.85;;;0.90;;
76103;SDS011;64831;44.870;37.336;2022-12-29T17:17:46;0.75;;;0.60;;
76103;SDS011;64831;44.870;37.336;2022-12-29T17:20:17;0.52;;;0.45;;
76103;SDS011;64831;44.870;37.336;2022-12-29T17:22:45;3.42;;;0.80;;
76103;SDS011;64831;44.870;37.336;2022-12-29T17:25:15;2.78;;;0.90;;
76103;SDS011;64831;44.870;37.336;2022-12-29T17:27:59;3.92;;;1.15;;
76103;SDS011;64831;44.870;37.336;2022-12-29T17:30:28;0.85;;;0.60;;
76103;SDS011;64831;44.870;37.336;2022-12-29T17:35:29;1.45;;;0.75;;
76103;SDS011;64831;44.870;37.336;2022-12-29T17:37:55;1.67;;;0.93;;
76103;SDS011;64831;44.870;37.336;2022-12-29T17:40:26;2.88;;;1.00;;
76103;SDS011;64831;44.870;37.336;2022-12-29T17:42:54;2.28;;;0.80;;
76103;SDS011;64831;44.870;37.336;2022-12-29T17:45:26;2.08;;;0.90;;
76103;SDS011;64831;44.870;37.336;2022-12-29T17:47:54;1.40;;;0.93;;
76103;SDS011;64831;44.870;37.336;2022-12-29T17:50:23;0.70;;;0.70;;
76103;SDS011;64831;44.870;37.336;2022-12-29T17:52:51;1.58;;;0.77;;
76103;SDS011;64831;44.870;37.336;2022-12-29T17:55:20;2.17;;;1.08;;
76103;SDS011;64831;44.870;37.336;2022-12-29T17:57:48;1.80;;;0.82;;
76103;SDS011;64831;44.870;37.336;2022-12-29T18:00:18;1.40;;;0.88;;
76103;SDS011;64831;44.870;37.336;2022-12-29T18:02:46;1.30;;;0.90;;
76103;SDS011;64831;44.870;37.336;2022-12-29T18:05:17;1.05;;;0.82;;
76103;SDS011;64831;44.870;37.336;2022-12-29T18:07:45;1.70;;;0.88;;
76103;SDS011;64831;44.870;37.336;2022-12-29T18:10:12;4.38;;;0.77;;
76103;SDS011;64831;44.870;37.336;2022-12-29T18:12:48;2.50;;;1.02;;
76103;SDS011;64831;44.870;37.336;2022-12-29T18:17:44;2.80;;;1.10;;
76103;SDS011;64831;44.870;37.336;2022-12-29T18:20:10;0.40;;;0.40;;
76103;SDS011;64831;44.870;37.336;2022-12-29T18:22:36;1.30;;;0.63;;
76103;SDS011;64831;44.870;37.336;2022-12-29T18:25:09;2.92;;;1.20;;
76103;SDS011;64831;44.870;37.336;2022-12-29T18:27:44;0.90;;;0.80;;
76103;SDS011;64831;44.870;37.336;2022-12-29T18:30:10;1.70;;;0.70;;
76103;SDS011;64831;44.870;37.336;2022-12-29T18:32:36;1.52;;;0.60;;
76103;SDS011;64831;44.870;37.336;2022-12-29T18:35:02;9.40;;;1.08;;
76103;SDS011;64831;44.870;37.336;2022-12-29T18:37:28;5.00;;;0.90;;
76103;SDS011;64831;44.870;37.336;2022-12-29T18:39:54;2.17;;;0.90;;
76103;SDS011;64831;44.870;37.336;2022-12-29T18:42:21;1.48;;;0.80;;
76103;SDS011;64831;44.870;37.336;2022-12-29T18:44:47;4.80;;;0.90;;
76103;SDS011;64831;44.870;37.336;2022-12-29T18:47:13;1.08;;;0.85;;
76103;SDS011;64831;44.870;37.336;2022-12-29T18:49:39;1.15;;;0.90;;
76103;SDS011;64831;44.870;37.336;2022-12-29T18:52:05;3.42;;;1.00;;
76103;SDS011;64831;44.870;37.336;2022-12-29T18:54:31;1.67;;;0.75;;
76103;SDS011;64831;44.870;37.336;2022-12-29T18:56:58;3.08;;;0.90;;
76103;SDS011;64831;44.870;37.336;2022-12-29T18:59:24;2.15;;;1.00;;
76103;SDS011;64831;44.870;37.336;2022-12-29T19:01:50;3.53;;;0.75;;
76103;SDS011;64831;44.870;37.336;2022-12-29T19:04:16;2.42;;;1.17;;
76103;SDS011;64831;44.870;37.336;2022-12-29T19:06:42;1.65;;;0.80;;
76103;SDS011;64831;44.870;37.336;2022-12-29T19:09:08;1.10;;;0.90;;
76103;SDS011;64831;44.870;37.336;2022-12-29T19:11:34;1.20;;;0.70;;
76103;SDS011;64831;44.870;37.336;2022-12-29T19:14:00;1.80;;;0.60;;
76103;SDS011;64831;44.870;37.336;2022-12-29T19:16:26;2.45;;;0.75;;
76103;SDS011;64831;44.870;37.336;2022-12-29T19:18:52;2.38;;;0.90;;
76103;SDS011;64831;44.870;37.336;2022-12-29T19:21:22;2.10;;;0.70;;
76103;SDS011;64831;44.870;37.336;2022-12-29T19:23:48;2.35;;;0.93;;
76103;SDS011;64831;44.870;37.336;2022-12-29T19:26:20;2.58;;;0.77;;
76103;SDS011;64831;44.870;37.336;2022-12-29T19:29:00;1.38;;;1.13;;
76103;SDS011;64831;44.870;37.336;2022-12-29T19:31:26;3.85;;;2.05;;
76103;SDS011;64831;44.870;37.336;2022-12-29T19:33:53;2.78;;;0.80;;
76103;SDS011;64831;44.870;37.336;2022-12-29T19:36:20;1.08;;;0.75;;
76103;SDS011;64831;44.870;37.336;2022-12-29T19:38:46;1.15;;;0.90;;
76103;SDS011;64831;44.870;37.336;2022-12-29T19:41:13;1.30;;;0.80;;
76103;SDS011;64831;44.870;37.336;2022-12-29T19:43:39;1.73;;;1.00;;
76103;SDS011;64831;44.870;37.336;2022-12-29T19:46:08;0.70;;;0.70;;
76103;SDS011;64831;44.870;37.336;2022-12-29T19:48:37;2.65;;;0.60;;
76103;SDS011;64831;44.870;37.336;2022-12-29T19:51:04;0.70;;;0.63;;
76103;SDS011;64831;44.870;37.336;2022-12-29T19:53:32;0.95;;;0.60;;
76103;SDS011;64831;44.870;37.336;2022-12-29T19:56:03;1.73;;;0.88;;
76103;SDS011;64831;44.870;37.336;2022-12-29T19:58:31;1.10;;;0.65;;
76103;SDS011;64831;44.870;37.336;2022-12-29T20:01:18;2.30;;;0.70;;
76103;SDS011;64831;44.870;37.336;2022-12-29T20:03:46;1.58;;;0.98;;
76103;SDS011;64831;44.870;37.336;2022-12-29T20:06:13;0.98;;;0.50;;
76103;SDS011;64831;44.870;37.336;2022-12-29T20:08:39;3.83;;;0.82;;
76103;SDS011;64831;44.870;37.336;2022-12-29T20:11:06;2.60;;;0.93;;
76103;SDS011;64831;44.870;37.336;2022-12-29T20:13:36;1.50;;;0.70;;
76103;SDS011;64831;44.870;37.336;2022-12-29T20:16:04;0.70;;;0.55;;
76103;SDS011;64831;44.870;37.336;2022-12-29T20:18:32;0.70;;;0.70;;
76103;SDS011;64831;44.870;37.336;2022-12-29T20:21:03;1.20;;;0.68;;
76103;SDS011;64831;44.870;37.336;2022-12-29T20:23:31;1.42;;;1.00;;
76103;SDS011;64831;44.870;37.336;2022-12-29T20:25:58;0.70;;;0.60;;
76103;SDS011;64831;44.870;37.336;2022-12-29T20:28:25;0.82;;;0.60;;
76103;SDS011;64831;44.870;37.336;2022-12-29T20:30:53;3.53;;;0.75;;
76103;SDS011;64831;44.870;37.336;2022-12-29T20:33:24;1.17;;;0.68;;
76103;SDS011;64831;44.870;37.336;2022-12-29T20:35:50;0.90;;;0.75;;
76103;SDS011;64831;44.870;37.336;2022-12-29T20:38:16;2.10;;;0.70;;
76103;SDS011;64831;44.870;37.336;2022-12-29T20:40:43;0.70;;;0.60;;
76103;SDS011;64831;44.870;37.336;2022-12-29T20:43:11;1.90;;;0.90;;
76103;SDS011;64831;44.870;37.336;2022-12-29T20:45:38;1.13;;;0.80;;
76103;SDS011;64831;44.870;37.336;2022-12-29T20:48:04;0.68;;;0.57;;
76103;SDS011;64831;44.870;37.336;2022-12-29T20:50:30;2.22;;;0.75;;
76103;SDS011;64831;44.870;37.336;2022-12-29T20:52:56;4.90;;;1.25;;
76103;SDS011;64831;44.870;37.336;2022-12-29T20:55:22;2.08;;;1.30;;
76103;SDS011;64831;44.870;37.336;2022-12-29T20:57:48;2.55;;;1.02;;
76103;SDS011;64831;44.870;37.336;2022-12-29T21:00:14;1.40;;;0.70;;
76103;SDS011;64831;44.870;37.336;2022-12-29T21:02:40;1.98;;;0.70;;
76103;SDS011;64831;44.870;37.336;2022-12-29T21:05:06;1.33;;;0.65;;
76103;SDS011;64831;44.870;37.336;2022-12-29T21:07:32;2.85;;;1.05;;
76103;SDS011;64831;44.870;37.336;2022-12-29T21:09:58;1.85;;;0.82;;